createdAt,value
2023-11-13T00:00:53.792Z,1.44
2023-11-13T00:03:42.080Z,1.30
2023-11-13T00:06:10.470Z,1.40
2023-11-13T00:08:39.656Z,1.40
2023-11-13T00:11:07.863Z,1.50
2023-11-13T00:13:35.943Z,1.50
2023-11-13T00:16:04.323Z,1.44
2023-11-13T00:18:33.209Z,1.40
2023-11-13T00:21:01.359Z,1.40
2023-11-13T00:23:30.191Z,1.30
2023-11-13T00:25:58.938Z,1.30
2023-11-13T00:28:27.151Z,1.38
2023-11-13T00:30:55.805Z,1.40
2023-11-13T00:33:23.748Z,1.30
2023-11-13T00:35:51.735Z,1.30
2023-11-13T00:38:19.813Z,1.30
2023-11-13T00:40:48.782Z,1.22
2023-11-13T00:43:16.826Z,1.10
2023-11-13T00:45:45.376Z,1.10
2023-11-13T00:48:14.226Z,1.02
2023-11-13T00:50:42.412Z,1.00
2023-11-13T00:53:11.733Z,1.00
2023-11-13T00:55:40.745Z,1.00
2023-11-13T00:58:08.927Z,1.00
2023-11-13T01:00:37.118Z,1.00
2023-11-13T01:03:05.779Z,1.00
2023-11-13T01:05:34.694Z,1.00
2023-11-13T01:08:04.852Z,1.00
2023-11-13T01:10:32.928Z,0.94
2023-11-13T01:13:00.950Z,0.90
2023-11-13T01:15:28.969Z,0.88
2023-11-13T01:17:57.029Z,0.90
2023-11-13T01:20:25.238Z,0.90
2023-11-13T01:22:53.355Z,0.82
2023-11-13T01:25:21.695Z,0.80
2023-11-13T01:27:49.984Z,0.80
2023-11-13T01:30:18.523Z,0.80
2023-11-13T01:32:46.522Z,0.70
2023-11-13T01:35:14.773Z,0.80
2023-11-13T01:37:42.968Z,0.80
2023-11-13T01:40:11.488Z,0.86
2023-11-13T01:42:40.029Z,0.90
2023-11-13T01:45:09.234Z,0.90
2023-11-13T01:47:37.454Z,1.00
2023-11-13T01:50:10.249Z,1.00
2023-11-13T01:52:38.354Z,1.10
2023-11-13T01:55:06.913Z,1.14
2023-11-13T01:57:35.114Z,1.20
2023-11-13T02:00:06.215Z,1.20
2023-11-13T02:02:41.731Z,1.16
2023-11-13T02:05:10.085Z,1.20
2023-11-13T02:07:38.059Z,1.20
2023-11-13T02:10:06.416Z,1.20
2023-11-13T02:12:35.944Z,1.10
2023-11-13T02:15:04.320Z,1.10
2023-11-13T02:17:32.351Z,1.02
2023-11-13T02:20:00.452Z,1.00
2023-11-13T02:22:29.025Z,0.90
2023-11-13T02:24:57.167Z,0.70
2023-11-13T02:27:25.289Z,0.70
2023-11-13T02:29:53.292Z,0.70
2023-11-13T02:32:22.967Z,0.80
2023-11-13T02:34:51.143Z,0.80
2023-11-13T02:37:20.175Z,0.70
2023-11-13T02:39:48.576Z,0.70
2023-11-13T02:42:16.603Z,0.70
2023-11-13T02:44:44.626Z,0.70
2023-11-13T02:47:13.118Z,0.70
2023-11-13T02:49:41.339Z,0.70
2023-11-13T02:52:09.373Z,0.60
2023-11-13T02:54:37.387Z,0.60
2023-11-13T02:57:05.613Z,0.60
2023-11-13T02:59:33.727Z,0.60
2023-11-13T03:02:01.871Z,0.60
2023-11-13T03:04:31.608Z,0.70
2023-11-13T03:06:59.628Z,0.80
2023-11-13T03:09:27.727Z,0.90
2023-11-13T03:11:55.766Z,0.80
2023-11-13T03:14:23.755Z,0.80
2023-11-13T03:16:51.961Z,0.88
2023-11-13T03:19:21.266Z,0.90
2023-11-13T03:21:49.397Z,0.80
2023-11-13T03:24:17.885Z,0.86
2023-11-13T03:26:47.994Z,0.90
2023-11-13T03:29:16.157Z,0.90
2023-11-13T03:31:44.318Z,0.90
2023-11-13T03:34:12.466Z,0.90
2023-11-13T03:36:40.557Z,0.82
2023-11-13T03:39:09.621Z,0.80
2023-11-13T03:41:37.812Z,0.70
2023-11-13T03:44:06.653Z,0.70
2023-11-13T03:46:34.964Z,0.62
2023-11-13T03:49:03.165Z,0.60
2023-11-13T03:51:31.487Z,0.50
2023-11-13T03:53:59.450Z,0.40
2023-11-13T03:56:27.684Z,0.34
2023-11-13T03:58:56.121Z,0.30
2023-11-13T04:01:24.291Z,0.30
2023-11-13T04:03:52.492Z,0.40
2023-11-13T04:06:20.671Z,0.40
2023-11-13T04:08:48.691Z,0.50
2023-11-13T04:11:16.695Z,0.50
2023-11-13T04:13:46.232Z,0.56
2023-11-13T04:16:14.229Z,0.60
2023-11-13T04:18:42.385Z,0.60
2023-11-13T04:21:11.079Z,0.70
2023-11-13T04:23:39.028Z,0.72
2023-11-13T04:26:10.360Z,0.80
2023-11-13T04:28:41.220Z,0.90
2023-11-13T04:31:15.199Z,0.90
2023-11-13T04:33:43.461Z,0.90
2023-11-13T04:36:11.597Z,0.86
2023-11-13T04:38:41.527Z,0.70
2023-11-13T04:41:11.051Z,0.70
2023-11-13T04:43:40.564Z,0.50
2023-11-13T04:46:08.965Z,0.40
2023-11-13T04:48:40.274Z,0.30
2023-11-13T04:51:08.348Z,0.22
2023-11-13T04:53:37.277Z,0.30
2023-11-13T04:56:05.819Z,0.30
2023-11-13T04:58:33.918Z,0.40
2023-11-13T05:01:02.065Z,0.40
2023-11-13T05:03:33.361Z,0.40
2023-11-13T05:06:02.058Z,0.40
2023-11-13T05:08:30.630Z,0.10
2023-11-13T05:10:58.737Z,-0.04
2023-11-13T05:13:26.844Z,-0.14
2023-11-13T05:15:55.040Z,-0.10
2023-11-13T05:18:23.021Z,-0.10
2023-11-13T05:20:50.990Z,-0.10
2023-11-13T05:23:19.626Z,0.00
2023-11-13T05:25:47.534Z,0.00
2023-11-13T05:28:15.388Z,0.00
2023-11-13T05:30:43.321Z,0.00
2023-11-13T05:33:11.709Z,0.00
2023-11-13T05:35:39.683Z,0.10
2023-11-13T05:38:07.682Z,0.20
2023-11-13T05:40:35.811Z,0.20
2023-11-13T05:43:03.888Z,0.20
2023-11-13T05:45:31.871Z,0.20
2023-11-13T05:47:59.817Z,0.20
2023-11-13T05:50:28.001Z,0.10
2023-11-13T05:52:56.281Z,0.10
2023-11-13T05:55:24.702Z,0.20
2023-11-13T05:57:53.127Z,0.22
2023-11-13T06:00:21.934Z,0.30
2023-11-13T06:02:50.032Z,0.40
2023-11-13T06:05:18.786Z,0.50
2023-11-13T06:07:46.876Z,0.60
2023-11-13T06:10:15.970Z,0.70
2023-11-13T06:12:44.668Z,0.80
2023-11-13T06:15:15.747Z,0.90
2023-11-13T06:17:45.310Z,1.00
2023-11-13T06:20:14.960Z,1.06
2023-11-13T06:22:43.073Z,1.00
2023-11-13T06:25:11.776Z,1.00
2023-11-13T06:27:40.157Z,0.90
2023-11-13T06:30:13.274Z,0.70
2023-11-13T06:32:41.571Z,0.50
2023-11-13T06:35:09.607Z,0.36
2023-11-13T06:37:37.664Z,0.32
2023-11-13T06:40:06.750Z,0.30
2023-11-13T06:42:35.081Z,0.40
2023-11-13T06:45:04.241Z,0.40
2023-11-13T06:47:32.228Z,0.40
2023-11-13T06:50:02.005Z,0.40
2023-11-13T06:52:32.706Z,0.40
2023-11-13T06:55:00.934Z,0.46
2023-11-13T06:57:29.141Z,0.44
2023-11-13T06:59:57.152Z,0.40
2023-11-13T07:02:28.317Z,0.40
2023-11-13T07:04:56.427Z,0.46
2023-11-13T07:07:25.134Z,0.50
2023-11-13T07:09:53.686Z,0.60
2023-11-13T07:12:22.148Z,0.70
2023-11-13T07:14:50.563Z,0.80
2023-11-13T07:17:18.700Z,0.90
2023-11-13T07:19:46.682Z,1.00
2023-11-13T07:22:14.967Z,1.10
2023-11-13T07:24:42.962Z,1.20
2023-11-13T07:27:13.464Z,1.30
2023-11-13T07:29:44.746Z,1.38
2023-11-13T07:32:12.770Z,1.40
2023-11-13T07:34:40.763Z,1.50
2023-11-13T07:37:09.233Z,1.60
2023-11-13T07:39:37.484Z,1.60
2023-11-13T07:42:05.612Z,1.70
2023-11-13T07:44:33.671Z,1.80
2023-11-13T07:47:02.578Z,1.80
2023-11-13T07:49:32.024Z,1.90
2023-11-13T07:52:01.337Z,1.90
2023-11-13T07:54:29.609Z,2.00
2023-11-13T07:56:58.446Z,2.00
2023-11-13T07:59:26.442Z,2.10
2023-11-13T08:01:55.079Z,2.20
2023-11-13T08:04:23.550Z,2.30
2023-11-13T08:06:51.574Z,2.20
2023-11-13T08:09:21.886Z,2.30
2023-11-13T08:11:50.646Z,2.40
2023-11-13T08:14:18.960Z,2.50
2023-11-13T08:16:47.427Z,2.60
2023-11-13T08:19:15.859Z,2.70
2023-11-13T08:21:44.958Z,2.80
2023-11-13T08:24:13.196Z,2.90
2023-11-13T08:26:42.086Z,3.04
2023-11-13T08:29:11.126Z,3.10
2023-11-13T08:31:39.221Z,3.20
2023-11-13T08:34:07.564Z,3.34
2023-11-13T08:36:36.230Z,3.50
2023-11-13T08:39:04.437Z,3.60
2023-11-13T08:41:34.689Z,3.70
2023-11-13T08:44:02.722Z,3.80
2023-11-13T08:46:31.785Z,3.90
2023-11-13T08:49:03.284Z,4.00
2023-11-13T08:51:34.971Z,4.10
2023-11-13T08:54:03.096Z,4.10
2023-11-13T08:56:31.079Z,4.00
2023-11-13T08:59:00.401Z,4.00
2023-11-13T09:01:29.698Z,3.90
2023-11-13T09:04:01.906Z,4.08
2023-11-13T09:06:33.327Z,4.40
2023-11-13T09:09:02.492Z,4.60
2023-11-13T09:11:31.363Z,4.70
2023-11-13T09:14:01.526Z,4.76
2023-11-13T09:16:29.995Z,4.72
2023-11-13T09:18:59.313Z,4.80
2023-11-13T09:21:27.843Z,4.90
2023-11-13T09:23:55.847Z,4.90
2023-11-13T09:26:23.762Z,5.10
2023-11-13T09:28:52.727Z,5.20
2023-11-13T09:31:20.701Z,5.20
2023-11-13T09:33:49.034Z,5.30
2023-11-13T09:36:18.639Z,5.30
2023-11-13T09:38:46.723Z,5.50
2023-11-13T09:41:14.688Z,5.60
2023-11-13T09:43:42.703Z,5.60
2023-11-13T09:46:10.929Z,5.50
2023-11-13T09:48:51.506Z,5.50
2023-11-13T09:51:27.631Z,5.40
2023-11-13T09:54:01.606Z,5.50
2023-11-13T09:56:31.626Z,5.50
2023-11-13T09:59:00.205Z,5.58
2023-11-13T10:01:28.254Z,5.70
2023-11-13T10:03:56.574Z,5.70
2023-11-13T10:06:25.170Z,5.80
2023-11-13T10:08:55.132Z,5.90
2023-11-13T10:11:30.827Z,6.00
2023-11-13T10:14:15.113Z,6.10
2023-11-13T10:17:01.811Z,6.30
2023-11-13T10:19:30.247Z,6.50
2023-11-13T10:21:58.709Z,6.68
2023-11-13T10:24:34.714Z,6.90
2023-11-13T10:27:09.735Z,7.20
2023-11-13T10:29:38.582Z,7.36
2023-11-13T10:32:07.033Z,7.50
2023-11-13T10:34:46.892Z,7.70
2023-11-13T10:37:17.833Z,7.86
2023-11-13T10:39:46.236Z,8.00
2023-11-13T10:42:25.038Z,8.20
2023-11-13T10:44:54.826Z,8.30
2023-11-13T10:47:24.820Z,8.50
2023-11-13T10:49:57.299Z,8.70
2023-11-13T10:52:28.496Z,8.90
2023-11-13T10:55:01.545Z,9.20
2023-11-13T10:57:30.044Z,9.40
2023-11-13T10:59:58.423Z,9.60
2023-11-13T11:02:46.634Z,9.60
2023-11-13T11:05:24.429Z,9.70
2023-11-13T11:07:54.252Z,9.70
2023-11-13T11:10:25.627Z,9.70
2023-11-13T11:13:01.845Z,9.70
2023-11-13T11:15:33.665Z,9.86
2023-11-13T11:18:30.017Z,9.90
2023-11-13T11:21:03.721Z,10.00
2023-11-13T11:23:33.597Z,10.10
2023-11-13T11:26:03.046Z,10.20
2023-11-13T11:28:46.317Z,10.32
2023-11-13T11:31:34.501Z,10.50
2023-11-13T11:34:02.643Z,10.50
2023-11-13T11:36:34.585Z,10.42
2023-11-13T11:39:15.495Z,10.34
2023-11-13T11:41:43.821Z,10.20
2023-11-13T11:44:15.053Z,10.12
2023-11-13T11:46:46.792Z,10.10
2023-11-13T11:49:28.457Z,10.10
2023-11-13T11:52:00.675Z,10.04
2023-11-13T11:54:30.822Z,10.06
2023-11-13T11:57:05.995Z,10.10
2023-11-13T11:59:34.609Z,10.10
2023-11-13T12:02:05.827Z,10.00
2023-11-13T12:04:34.493Z,9.90
2023-11-13T12:07:03.769Z,9.88
2023-11-13T12:09:32.021Z,9.90
2023-11-13T12:12:01.074Z,9.80
2023-11-13T12:14:31.507Z,9.70
2023-11-13T12:16:59.781Z,9.66
2023-11-13T12:19:30.811Z,9.60
2023-11-13T12:21:58.900Z,9.60
2023-11-13T12:24:26.834Z,9.70
2023-11-13T12:26:58.191Z,9.70
2023-11-13T12:29:26.735Z,9.70
2023-11-13T12:31:55.692Z,9.70
2023-11-13T12:34:27.511Z,9.60
2023-11-13T12:36:55.659Z,9.60
2023-11-13T12:39:24.350Z,9.50
2023-11-13T12:41:56.671Z,9.50
2023-11-13T12:44:25.397Z,9.50
2023-11-13T12:46:57.664Z,9.46
2023-11-13T12:49:26.466Z,9.40
2023-11-13T12:51:54.935Z,9.40
2023-11-13T12:54:22.974Z,9.40
2023-11-13T12:56:52.194Z,9.32
2023-11-13T12:59:21.661Z,9.20
2023-11-13T13:01:50.302Z,9.20
2023-11-13T13:04:21.567Z,9.10
2023-11-13T13:06:54.950Z,9.00
2023-11-13T13:09:25.761Z,8.96
2023-11-13T13:11:55.376Z,8.90
2023-11-13T13:14:24.537Z,8.80
2023-11-13T13:16:56.731Z,8.80
2023-11-13T13:19:25.331Z,8.70
2023-11-13T13:21:56.674Z,8.70
2023-11-13T13:24:27.830Z,8.70
2023-11-13T13:26:57.270Z,8.70
2023-11-13T13:29:25.380Z,8.60
2023-11-13T13:31:53.538Z,8.60
2023-11-13T13:34:21.604Z,8.60
2023-11-13T13:36:49.725Z,8.60
2023-11-13T13:39:17.846Z,8.50
2023-11-13T13:41:45.863Z,8.54
2023-11-13T13:44:14.510Z,8.52
2023-11-13T13:46:48.452Z,8.50
2023-11-13T13:49:18.165Z,8.50
2023-11-13T13:51:47.298Z,8.50
2023-11-13T13:54:17.342Z,8.60
2023-11-13T13:56:45.368Z,8.60
2023-11-13T13:59:16.089Z,8.60
2023-11-13T14:01:44.422Z,8.60
2023-11-13T14:04:13.031Z,8.60
2023-11-13T14:06:41.659Z,8.60
2023-11-13T14:09:14.467Z,8.60
2023-11-13T14:11:46.886Z,8.50
2023-11-13T14:14:17.235Z,8.50
2023-11-13T14:16:54.111Z,8.50
2023-11-13T14:19:22.254Z,8.46
2023-11-13T14:21:50.523Z,8.40
2023-11-13T14:24:22.034Z,8.36
2023-11-13T14:26:50.381Z,8.38
2023-11-13T14:29:18.555Z,8.30
2023-11-13T14:31:47.404Z,8.30
2023-11-13T14:34:16.128Z,8.30
2023-11-13T14:36:44.862Z,8.24
2023-11-13T14:39:15.492Z,8.24
2023-11-13T14:41:46.892Z,8.20
2023-11-13T14:44:17.292Z,8.14
2023-11-13T14:46:45.415Z,8.10
2023-11-13T14:49:16.221Z,8.08
2023-11-13T14:51:44.321Z,8.00
2023-11-13T14:54:14.531Z,8.00
2023-11-13T14:56:43.075Z,8.00
2023-11-13T14:59:14.266Z,8.00
2023-11-13T15:01:42.497Z,8.00
2023-11-13T15:04:11.698Z,8.00
2023-11-13T15:06:42.300Z,8.00
2023-11-13T15:09:10.996Z,8.00
2023-11-13T15:11:42.298Z,8.00
2023-11-13T15:14:13.861Z,7.96
2023-11-13T15:16:42.254Z,7.90
2023-11-13T15:19:13.518Z,7.90
2023-11-13T15:21:44.389Z,7.90
2023-11-13T15:24:14.295Z,7.90
2023-11-13T15:26:42.553Z,7.90
2023-11-13T15:29:11.240Z,7.90
2023-11-13T15:31:39.964Z,7.94
2023-11-13T15:34:17.973Z,7.86
2023-11-13T15:36:49.879Z,7.80
2023-11-13T15:39:18.623Z,7.80
2023-11-13T15:41:46.949Z,7.78
2023-11-13T15:44:15.168Z,7.74
2023-11-13T15:46:43.894Z,7.70
2023-11-13T15:49:12.029Z,7.70
2023-11-13T15:51:42.143Z,7.70
2023-11-13T15:54:12.265Z,7.62
2023-11-13T15:56:41.007Z,7.70
2023-11-13T15:59:09.191Z,7.70
2023-11-13T16:01:38.372Z,7.74
2023-11-13T16:04:06.871Z,7.76
2023-11-13T16:06:35.163Z,7.78
2023-11-13T16:09:06.141Z,7.74
2023-11-13T16:11:34.553Z,7.70
2023-11-13T16:14:02.734Z,7.70
2023-11-13T16:16:31.152Z,7.70
2023-11-13T16:18:59.218Z,7.70
2023-11-13T16:21:28.205Z,7.70
2023-11-13T16:23:57.527Z,7.60
2023-11-13T16:26:25.716Z,7.60
2023-11-13T16:28:53.944Z,7.56
2023-11-13T16:31:23.698Z,7.50
2023-11-13T16:33:52.216Z,7.50
2023-11-13T16:36:32.598Z,7.50
2023-11-13T16:39:03.268Z,7.50
2023-11-13T16:41:31.538Z,7.40
2023-11-13T16:43:59.706Z,7.40
2023-11-13T16:46:27.766Z,7.40
2023-11-13T16:48:55.863Z,7.40
2023-11-13T16:51:24.065Z,7.40
2023-11-13T16:53:53.597Z,7.34
2023-11-13T16:56:26.145Z,7.26
2023-11-13T16:58:54.204Z,7.30
2023-11-13T17:01:26.564Z,7.24
2023-11-13T17:03:54.805Z,7.20
2023-11-13T17:06:22.728Z,7.10
2023-11-13T17:09:01.765Z,7.10
2023-11-13T17:11:30.412Z,7.10
2023-11-13T17:13:58.737Z,7.10
2023-11-13T17:16:27.923Z,7.10
2023-11-13T17:18:56.069Z,7.08
2023-11-13T17:21:24.288Z,7.08
2023-11-13T17:23:52.715Z,7.10
2023-11-13T17:26:44.853Z,7.10
2023-11-13T17:29:13.094Z,7.10
2023-11-13T17:31:42.807Z,7.10
2023-11-13T17:34:11.135Z,7.14
2023-11-13T17:36:42.499Z,7.16
2023-11-13T17:39:12.596Z,7.20
2023-11-13T17:41:41.015Z,7.20
2023-11-13T17:44:09.376Z,7.10
2023-11-13T17:46:37.516Z,7.06
2023-11-13T17:49:06.625Z,7.00
2023-11-13T17:51:35.718Z,7.00
2023-11-13T17:54:04.595Z,7.00
2023-11-13T17:56:32.668Z,6.90
2023-11-13T17:59:02.119Z,6.90
2023-11-13T18:01:35.717Z,6.84
2023-11-13T18:04:05.906Z,6.80
2023-11-13T18:06:34.303Z,6.80
2023-11-13T18:09:02.468Z,6.80
2023-11-13T18:11:30.943Z,6.86
2023-11-13T18:13:59.247Z,6.90
2023-11-13T18:16:29.639Z,6.90
2023-11-13T18:18:58.600Z,6.90
2023-11-13T18:21:26.684Z,6.92
2023-11-13T18:23:54.918Z,6.90
2023-11-13T18:26:22.934Z,6.92
2023-11-13T18:28:51.011Z,6.90
2023-11-13T18:31:19.210Z,6.90
2023-11-13T18:33:47.273Z,6.90
2023-11-13T18:36:16.369Z,6.90
2023-11-13T18:38:44.510Z,6.90
2023-11-13T18:41:13.475Z,6.92
2023-11-13T18:43:43.473Z,6.98
2023-11-13T18:46:12.064Z,6.98
2023-11-13T18:48:42.327Z,7.00
2023-11-13T18:51:12.223Z,7.00
2023-11-13T18:53:42.034Z,7.00
2023-11-13T18:56:16.164Z,6.90
2023-11-13T18:58:44.584Z,6.90
2023-11-13T19:01:15.757Z,6.88
2023-11-13T19:03:45.104Z,6.82
2023-11-13T19:06:13.676Z,6.78
2023-11-13T19:08:43.764Z,6.70
2023-11-13T19:11:13.305Z,6.64
2023-11-13T19:13:49.964Z,6.60
2023-11-13T19:16:18.393Z,6.60
2023-11-13T19:18:46.714Z,6.50
2023-11-13T19:21:14.905Z,6.60
2023-11-13T19:23:43.195Z,6.60
2023-11-13T19:26:11.833Z,6.60
2023-11-13T19:28:39.909Z,6.60
2023-11-13T19:31:07.973Z,6.52
2023-11-13T19:33:36.310Z,6.60
2023-11-13T19:36:06.613Z,6.60
2023-11-13T19:38:35.427Z,6.60
2023-11-13T19:41:06.915Z,6.60
2023-11-13T19:43:36.086Z,6.60
2023-11-13T19:46:04.494Z,6.60
2023-11-13T19:48:35.041Z,6.60
2023-11-13T19:51:07.983Z,6.60
2023-11-13T19:53:36.406Z,6.60
2023-11-13T19:56:05.025Z,6.60
2023-11-13T19:58:33.092Z,6.60
2023-11-13T20:01:01.410Z,6.54
2023-11-13T20:03:35.782Z,6.60
2023-11-13T20:06:07.276Z,6.60
2023-11-13T20:08:36.566Z,6.60
2023-11-13T20:11:10.704Z,6.50
2023-11-13T20:14:01.190Z,6.50
2023-11-13T20:16:31.493Z,6.50
2023-11-13T20:18:59.733Z,6.50
2023-11-13T20:21:28.005Z,6.50
2023-11-13T20:23:56.205Z,6.50
2023-11-13T20:26:26.530Z,6.50
2023-11-13T20:28:54.671Z,6.50
2023-11-13T20:31:24.237Z,6.50
2023-11-13T20:34:01.014Z,6.50
2023-11-13T20:36:30.033Z,6.56
2023-11-13T20:39:18.506Z,6.50
2023-11-13T20:42:00.308Z,6.60
2023-11-13T20:44:28.864Z,6.60
2023-11-13T20:46:57.833Z,6.58
2023-11-13T20:49:26.118Z,6.60
2023-11-13T20:51:56.866Z,6.58
2023-11-13T20:54:25.465Z,6.60
2023-11-13T20:56:55.067Z,6.60
2023-11-13T20:59:24.822Z,6.58
2023-11-13T21:01:54.618Z,6.60
2023-11-13T21:04:23.018Z,6.50
2023-11-13T21:06:54.954Z,6.60
2023-11-13T21:09:23.180Z,6.54
2023-11-13T21:11:51.335Z,6.60
2023-11-13T21:14:22.019Z,6.60
2023-11-13T21:16:50.170Z,6.60
2023-11-13T21:19:18.425Z,6.60
2023-11-13T21:21:48.041Z,6.60
2023-11-13T21:24:16.242Z,6.60
2023-11-13T21:26:44.339Z,6.60
2023-11-13T21:29:12.268Z,6.56
2023-11-13T21:31:40.504Z,6.58
2023-11-13T21:34:08.605Z,6.50
2023-11-13T21:36:36.533Z,6.40
2023-11-13T21:39:08.573Z,6.38
2023-11-13T21:41:37.482Z,6.30
2023-11-13T21:44:06.442Z,6.30
2023-11-13T21:46:34.631Z,6.24
2023-11-13T21:49:05.824Z,6.20
2023-11-13T21:51:36.509Z,6.10
2023-11-13T21:54:07.565Z,6.10
2023-11-13T21:56:35.531Z,6.10
2023-11-13T21:59:03.517Z,6.02
2023-11-13T22:01:31.600Z,6.02
2023-11-13T22:03:59.885Z,6.00
2023-11-13T22:06:27.968Z,6.00
2023-11-13T22:08:58.335Z,5.96
2023-11-13T22:11:26.376Z,5.98
2023-11-13T22:13:54.596Z,5.98
2023-11-13T22:16:23.212Z,5.92
2023-11-13T22:18:51.348Z,5.90
2023-11-13T22:21:20.388Z,6.00
2023-11-13T22:23:48.403Z,6.00
2023-11-13T22:26:16.542Z,6.00
2023-11-13T22:28:44.680Z,6.00
2023-11-13T22:31:12.820Z,6.00
2023-11-13T22:33:44.194Z,5.90
2023-11-13T22:36:19.679Z,6.00
2023-11-13T22:38:47.767Z,6.00
2023-11-13T22:41:15.836Z,5.98
2023-11-13T22:43:44.245Z,6.00
2023-11-13T22:46:12.286Z,6.00
2023-11-13T22:48:40.508Z,6.06
2023-11-13T22:51:08.419Z,6.00
2023-11-13T22:53:36.467Z,6.10
2023-11-13T22:56:04.907Z,6.10
2023-11-13T22:58:33.059Z,6.10
2023-11-13T23:01:01.531Z,6.10
2023-11-13T23:03:29.732Z,6.10
2023-11-13T23:05:58.001Z,6.20
2023-11-13T23:08:26.113Z,6.12
2023-11-13T23:10:56.447Z,6.14
2023-11-13T23:13:24.810Z,6.20
2023-11-13T23:15:52.835Z,6.20
2023-11-13T23:18:22.117Z,6.20
2023-11-13T23:20:50.374Z,6.10
2023-11-13T23:23:18.398Z,6.10
2023-11-13T23:25:49.672Z,6.00
2023-11-13T23:28:17.777Z,6.00
2023-11-13T23:30:45.791Z,6.04
2023-11-13T23:33:13.931Z,6.00
2023-11-13T23:35:41.948Z,6.00
2023-11-13T23:38:10.039Z,5.98
2023-11-13T23:40:38.615Z,5.90
2023-11-13T23:43:10.236Z,5.84
2023-11-13T23:45:41.409Z,5.88
2023-11-13T23:48:10.595Z,5.80
2023-11-13T23:50:38.717Z,5.80
2023-11-13T23:53:06.779Z,5.80
2023-11-13T23:55:34.929Z,5.70
2023-11-13T23:58:03.013Z,5.60
